createdAt,value
2022-09-28T00:01:10.914Z,95.64
2022-09-28T00:03:39.073Z,97.27
2022-09-28T00:06:10.256Z,95.21
2022-09-28T00:08:38.754Z,96.37
2022-09-28T00:11:13.879Z,99.74
2022-09-28T00:13:42.985Z,100.00
2022-09-28T00:16:14.586Z,100.00
2022-09-28T00:18:43.059Z,99.13
2022-09-28T00:21:13.473Z,100.00
2022-09-28T00:23:56.395Z,100.00
2022-09-28T00:26:26.257Z,100.00
2022-09-28T00:28:54.640Z,100.00
2022-09-28T00:31:23.808Z,100.00
2022-09-28T00:33:52.268Z,100.00
2022-09-28T00:36:20.512Z,100.00
2022-09-28T00:38:48.593Z,100.00
2022-09-28T00:41:18.899Z,100.00
2022-09-28T00:43:48.512Z,100.00
2022-09-28T00:46:21.169Z,100.00
2022-09-28T00:48:54.577Z,100.00
2022-09-28T00:51:23.152Z,100.00
2022-09-28T00:53:52.844Z,100.00
2022-09-28T00:56:26.287Z,100.00
2022-09-28T00:58:56.140Z,100.00
2022-09-28T01:01:24.440Z,100.00
2022-09-28T01:03:52.584Z,100.00
2022-09-28T01:06:24.198Z,100.00
2022-09-28T01:08:55.980Z,100.00
2022-09-28T01:11:24.152Z,100.00
2022-09-28T01:13:57.793Z,100.00
2022-09-28T01:16:34.215Z,100.00
2022-09-28T01:19:13.894Z,100.00
2022-09-28T01:21:52.469Z,99.53
2022-09-28T01:24:40.944Z,99.41
2022-09-28T01:27:17.171Z,98.35
2022-09-28T01:29:49.610Z,98.06
2022-09-28T01:32:43.699Z,97.20
2022-09-28T01:35:16.221Z,96.17
2022-09-28T01:37:52.023Z,95.78
2022-09-28T01:40:22.827Z,94.92
2022-09-28T01:42:58.645Z,95.79
2022-09-28T01:45:31.375Z,95.18
2022-09-28T01:48:03.473Z,95.42
2022-09-28T01:50:36.418Z,95.22
2022-09-28T01:53:11.603Z,95.83
2022-09-28T01:55:43.578Z,96.24
2022-09-28T01:58:17.169Z,94.57
2022-09-28T02:00:50.706Z,94.29
2022-09-28T02:03:22.678Z,93.49
2022-09-28T02:05:54.861Z,92.66
2022-09-28T02:08:28.747Z,94.18
2022-09-28T02:11:03.675Z,92.79
2022-09-28T02:13:36.692Z,93.05
2022-09-28T02:16:12.014Z,93.12
2022-09-28T02:18:40.374Z,92.01
2022-09-28T02:21:14.355Z,91.64
2022-09-28T02:23:53.795Z,91.59
2022-09-28T02:26:26.717Z,92.12
2022-09-28T02:28:56.370Z,90.59
2022-09-28T02:31:24.663Z,90.67
2022-09-28T02:33:55.037Z,89.93
2022-09-28T02:36:23.505Z,89.43
2022-09-28T02:38:52.290Z,89.46
2022-09-28T02:41:31.370Z,89.99
2022-09-28T02:44:11.701Z,89.92
2022-09-28T02:46:46.790Z,90.42
2022-09-28T02:49:23.394Z,89.68
2022-09-28T02:52:04.719Z,89.29
2022-09-28T02:54:48.673Z,89.27
2022-09-28T02:57:32.672Z,89.47
2022-09-28T03:00:08.240Z,90.59
2022-09-28T03:02:45.284Z,90.47
2022-09-28T03:05:20.853Z,89.95
2022-09-28T03:07:58.606Z,90.44
2022-09-28T03:10:35.288Z,90.00
2022-09-28T03:13:05.019Z,90.70
2022-09-28T03:15:36.350Z,90.37
2022-09-28T03:18:04.701Z,90.69
2022-09-28T03:20:34.851Z,90.19
2022-09-28T03:25:51.282Z,89.36
2022-09-28T03:28:19.640Z,89.77
2022-09-28T03:30:49.242Z,89.02
2022-09-28T03:33:17.367Z,88.89
2022-09-28T03:35:48.355Z,88.65
2022-09-28T03:38:17.037Z,88.96
2022-09-28T03:40:45.626Z,88.79
2022-09-28T03:43:13.846Z,89.34
2022-09-28T03:45:41.941Z,89.66
2022-09-28T03:48:11.437Z,89.59
2022-09-28T03:50:39.620Z,89.37
2022-09-28T03:53:08.062Z,90.04
2022-09-28T03:55:36.471Z,89.94
2022-09-28T03:58:04.543Z,89.84
2022-09-28T04:00:32.964Z,89.26
2022-09-28T04:03:01.114Z,88.83
2022-09-28T04:05:30.575Z,87.98
2022-09-28T04:07:58.966Z,88.64
2022-09-28T04:10:27.483Z,87.71
2022-09-28T04:12:56.239Z,87.35
2022-09-28T04:15:24.442Z,86.41
2022-09-28T04:17:52.962Z,85.39
2022-09-28T04:20:21.306Z,84.84
2022-09-28T04:22:50.822Z,85.18
2022-09-28T04:25:18.931Z,84.09
2022-09-28T04:28:04.342Z,83.74
2022-09-28T04:30:32.441Z,83.20
2022-09-28T04:33:00.593Z,82.64
2022-09-28T04:35:28.668Z,82.09
2022-09-28T04:37:58.522Z,82.34
2022-09-28T04:40:26.858Z,82.25
2022-09-28T04:42:56.402Z,82.69
2022-09-28T04:45:26.200Z,81.97
2022-09-28T04:47:54.693Z,81.82
2022-09-28T04:50:22.843Z,81.07
2022-09-28T04:52:50.955Z,81.15
2022-09-28T04:55:20.854Z,79.56
2022-09-28T04:57:48.886Z,78.72
2022-09-28T05:00:17.360Z,76.70
2022-09-28T05:02:45.796Z,73.45
2022-09-28T05:05:13.970Z,72.81
2022-09-28T05:07:42.093Z,74.59
2022-09-28T05:10:10.470Z,74.83
2022-09-28T05:12:40.060Z,72.94
2022-09-28T05:15:08.813Z,74.87
2022-09-28T05:17:36.880Z,74.26
2022-09-28T05:20:05.598Z,74.14
2022-09-28T05:22:34.609Z,73.41
2022-09-28T05:25:03.018Z,72.82
2022-09-28T05:27:31.140Z,74.10
2022-09-28T05:30:00.705Z,72.68
2022-09-28T05:32:28.901Z,70.68
2022-09-28T05:34:56.999Z,71.22
2022-09-28T05:37:25.107Z,70.50
2022-09-28T05:39:53.361Z,70.93
2022-09-28T05:42:21.472Z,70.11
2022-09-28T05:44:49.564Z,69.01
2022-09-28T05:47:19.117Z,68.04
2022-09-28T05:49:47.196Z,68.89
2022-09-28T05:52:15.552Z,67.44
2022-09-28T05:54:43.646Z,64.83
2022-09-28T05:57:11.725Z,61.52
2022-09-28T05:59:39.853Z,60.36
2022-09-28T06:02:08.561Z,61.25
2022-09-28T06:04:38.174Z,60.83
2022-09-28T06:07:06.360Z,60.53
2022-09-28T06:09:34.525Z,57.45
2022-09-28T06:12:02.841Z,53.93
2022-09-28T06:14:31.179Z,51.68
2022-09-28T06:16:59.379Z,51.78
2022-09-28T06:19:27.556Z,51.22
2022-09-28T06:21:59.273Z,48.56
2022-09-28T06:24:27.678Z,50.43
2022-09-28T06:26:55.885Z,48.59
2022-09-28T06:29:24.007Z,47.11
2022-09-28T06:31:52.614Z,47.22
2022-09-28T06:34:21.628Z,50.68
2022-09-28T06:36:49.877Z,52.36
2022-09-28T06:39:19.519Z,53.63
2022-09-28T06:41:47.639Z,54.19
2022-09-28T06:44:15.842Z,54.16
2022-09-28T06:46:43.918Z,54.65
2022-09-28T06:49:15.064Z,55.58
2022-09-28T06:51:47.414Z,58.41
2022-09-28T06:54:16.174Z,58.97
2022-09-28T06:56:45.670Z,60.87
2022-09-28T06:59:13.807Z,60.72
2022-09-28T07:01:42.108Z,60.16
2022-09-28T07:04:10.263Z,58.68
2022-09-28T07:06:38.637Z,59.16
2022-09-28T07:09:23.381Z,57.60
2022-09-28T07:11:56.905Z,57.85
2022-09-28T07:14:45.905Z,58.82
2022-09-28T07:17:14.786Z,57.67
2022-09-28T07:19:43.421Z,59.23
2022-09-28T07:22:18.956Z,59.57
2022-09-28T07:24:48.645Z,58.21
2022-09-28T07:27:18.147Z,59.05
2022-09-28T07:29:46.584Z,58.54
2022-09-28T07:32:14.646Z,57.88
2022-09-28T07:34:43.903Z,57.57
2022-09-28T07:37:13.513Z,56.89
2022-09-28T07:39:55.466Z,58.66
2022-09-28T07:42:25.497Z,58.18
2022-09-28T07:44:54.445Z,56.39
2022-09-28T07:47:29.760Z,55.42
2022-09-28T07:50:02.102Z,56.51
2022-09-28T07:52:30.416Z,56.02
2022-09-28T07:54:59.797Z,57.42
2022-09-28T07:57:32.328Z,56.97
2022-09-28T08:00:02.339Z,55.87
2022-09-28T08:02:33.037Z,55.80
2022-09-28T08:05:01.116Z,53.73
2022-09-28T08:07:29.557Z,54.86
2022-09-28T08:09:57.686Z,53.58
2022-09-28T08:12:25.935Z,53.84
2022-09-28T08:14:55.718Z,54.18
2022-09-28T08:17:23.797Z,52.55
2022-09-28T08:20:10.505Z,54.41
2022-09-28T08:22:38.754Z,53.73
2022-09-28T08:25:08.459Z,52.72
2022-09-28T08:27:36.766Z,55.12
2022-09-28T08:30:07.531Z,53.01
2022-09-28T08:32:35.883Z,54.30
2022-09-28T08:35:04.045Z,55.47
2022-09-28T08:37:32.108Z,53.96
2022-09-28T08:40:00.216Z,54.47
2022-09-28T08:42:36.083Z,54.66
2022-09-28T08:45:12.410Z,55.23
2022-09-28T08:48:10.207Z,52.93
2022-09-28T08:50:50.384Z,52.84
2022-09-28T08:53:32.383Z,51.51
2022-09-28T08:56:04.038Z,52.88
2022-09-28T08:58:37.741Z,52.73
2022-09-28T09:01:11.852Z,51.46
2022-09-28T09:03:42.085Z,51.76
2022-09-28T09:06:23.344Z,53.01
2022-09-28T09:09:03.348Z,52.76
2022-09-28T09:11:47.704Z,52.63
2022-09-28T09:14:54.812Z,52.06
2022-09-28T09:17:38.964Z,49.31
2022-09-28T09:20:18.799Z,49.45
2022-09-28T09:22:57.980Z,50.38
2022-09-28T09:25:29.859Z,50.08
2022-09-28T09:28:12.342Z,48.27
2022-09-28T09:30:50.445Z,47.14
2022-09-28T09:33:37.159Z,45.63
2022-09-28T09:36:16.802Z,44.68
2022-09-28T09:39:00.188Z,44.24
2022-09-28T09:41:42.804Z,44.55
2022-09-28T09:44:33.841Z,44.23
2022-09-28T09:47:08.303Z,42.28
2022-09-28T09:49:42.390Z,42.88
2022-09-28T09:52:20.618Z,43.28
2022-09-28T09:54:52.613Z,41.09
2022-09-28T09:57:24.060Z,40.67
2022-09-28T09:59:52.550Z,39.46
2022-09-28T10:02:26.569Z,39.81
2022-09-28T10:05:00.966Z,39.63
2022-09-28T10:07:41.403Z,40.48
2022-09-28T10:10:16.229Z,39.01
2022-09-28T10:12:44.968Z,40.49
2022-09-28T10:15:17.239Z,39.70
2022-09-28T10:17:45.393Z,37.82
2022-09-28T10:20:17.167Z,36.18
2022-09-28T10:22:45.536Z,36.71
2022-09-28T10:25:15.042Z,36.89
2022-09-28T10:27:46.693Z,37.06
2022-09-28T10:30:19.036Z,36.90
2022-09-28T10:32:49.012Z,37.97
2022-09-28T10:35:27.066Z,41.29
2022-09-28T10:38:04.548Z,49.20
2022-09-28T10:40:43.570Z,56.65
2022-09-28T10:43:23.043Z,58.63
2022-09-28T10:46:02.081Z,54.80
2022-09-28T10:48:34.955Z,56.79
2022-09-28T10:51:07.451Z,52.52
2022-09-28T10:53:37.609Z,38.62
2022-09-28T10:56:08.890Z,42.70
2022-09-28T10:58:42.005Z,46.29
2022-09-28T11:01:13.908Z,36.13
2022-09-28T11:03:56.445Z,39.79
2022-09-28T11:06:28.438Z,47.01
2022-09-28T11:08:58.798Z,54.52
2022-09-28T11:11:27.294Z,56.13
2022-09-28T11:14:00.541Z,58.14
2022-09-28T11:16:30.493Z,51.80
2022-09-28T11:19:00.376Z,60.09
2022-09-28T11:21:32.624Z,63.30
2022-09-28T11:24:08.813Z,64.79
2022-09-28T11:26:43.230Z,62.34
2022-09-28T11:29:28.471Z,59.74
2022-09-28T11:32:03.476Z,59.12
2022-09-28T11:34:57.623Z,60.10
2022-09-28T11:37:42.967Z,63.29
2022-09-28T11:40:24.452Z,61.42
2022-09-28T11:45:48.957Z,62.66
2022-09-28T11:48:20.177Z,63.45
2022-09-28T11:50:53.987Z,66.30
2022-09-28T11:53:30.312Z,66.47
2022-09-28T11:56:08.698Z,68.85
2022-09-28T11:58:41.991Z,69.10
2022-09-28T12:01:22.091Z,66.31
2022-09-28T12:03:55.031Z,64.97
2022-09-28T12:06:29.155Z,66.24
2022-09-28T12:09:07.076Z,66.22
2022-09-28T12:11:40.431Z,66.03
2022-09-28T12:14:16.856Z,68.44
2022-09-28T12:17:05.686Z,68.93
2022-09-28T12:19:40.819Z,71.01
2022-09-28T12:22:18.479Z,69.42
2022-09-28T12:24:52.251Z,69.77
2022-09-28T12:27:28.545Z,69.46
2022-09-28T12:30:03.597Z,67.77
2022-09-28T12:32:37.546Z,67.90
2022-09-28T12:35:13.327Z,66.33
2022-09-28T12:38:00.013Z,63.40
2022-09-28T12:40:49.240Z,61.01
2022-09-28T12:43:34.333Z,61.50
2022-09-28T12:46:37.700Z,61.69
2022-09-28T12:52:29.551Z,62.50
2022-09-28T12:55:29.323Z,61.19
2022-09-28T12:58:04.930Z,61.06
2022-09-28T13:00:41.213Z,62.06
2022-09-28T13:03:47.412Z,62.37
2022-09-28T13:06:34.620Z,63.09
2022-09-28T13:09:32.271Z,62.20
2022-09-28T13:12:15.996Z,63.06
2022-09-28T13:15:14.248Z,64.27
2022-09-28T13:17:50.639Z,65.27
2022-09-28T13:20:41.358Z,65.94
2022-09-28T13:23:16.269Z,66.39
2022-09-28T13:25:49.647Z,67.20
2022-09-28T13:28:25.046Z,67.87
2022-09-28T13:33:36.985Z,68.13
2022-09-28T13:36:06.136Z,69.43
2022-09-28T13:38:55.625Z,72.38
2022-09-28T13:41:29.176Z,73.56
2022-09-28T13:44:17.462Z,78.60
2022-09-28T13:47:00.107Z,80.97
2022-09-28T13:49:37.718Z,82.47
2022-09-28T13:52:10.811Z,83.27
2022-09-28T13:54:53.829Z,85.64
2022-09-28T13:57:27.442Z,87.70
2022-09-28T14:00:10.632Z,88.00
2022-09-28T14:02:45.753Z,89.72
2022-09-28T14:05:53.337Z,90.13
2022-09-28T14:08:35.397Z,91.16
2022-09-28T14:11:26.208Z,91.33
2022-09-28T14:14:03.090Z,91.59
2022-09-28T14:16:33.179Z,91.71
2022-09-28T14:19:08.522Z,91.96
2022-09-28T14:22:09.159Z,93.11
2022-09-28T14:25:01.760Z,90.42
2022-09-28T14:28:05.440Z,88.63
2022-09-28T14:30:49.658Z,89.02
2022-09-28T14:33:26.763Z,89.95
2022-09-28T14:35:58.893Z,89.54
2022-09-28T14:38:49.847Z,89.72
2022-09-28T14:41:34.309Z,90.49
2022-09-28T14:44:12.705Z,90.54
2022-09-28T14:46:44.808Z,90.79
2022-09-28T14:49:49.109Z,90.20
2022-09-28T14:52:39.323Z,90.08
2022-09-28T14:55:15.329Z,90.26
2022-09-28T14:57:44.047Z,90.16
2022-09-28T15:00:21.400Z,89.94
2022-09-28T15:02:52.761Z,88.46
2022-09-28T15:05:25.661Z,88.58
2022-09-28T15:07:56.145Z,88.63
2022-09-28T15:10:28.390Z,88.36
2022-09-28T15:12:58.256Z,88.62
2022-09-28T15:15:31.270Z,88.17
2022-09-28T15:18:09.753Z,88.85
2022-09-28T15:20:43.670Z,88.88
2022-09-28T15:26:08.653Z,88.19
2022-09-28T15:28:39.420Z,89.00
2022-09-28T15:31:07.562Z,89.50
2022-09-28T15:33:54.017Z,89.76
2022-09-28T15:36:25.658Z,91.26
2022-09-28T15:38:58.207Z,91.11
2022-09-28T15:41:29.017Z,91.17
2022-09-28T15:44:36.710Z,90.97
2022-09-28T15:47:16.802Z,90.34
2022-09-28T15:49:58.700Z,90.47
2022-09-28T15:52:34.115Z,90.22
2022-09-28T15:55:05.358Z,90.17
2022-09-28T15:57:38.216Z,90.54
2022-09-28T16:00:23.046Z,91.21
2022-09-28T16:03:03.318Z,92.42
2022-09-28T16:05:41.262Z,93.01
2022-09-28T16:08:21.476Z,93.59
2022-09-28T16:10:58.421Z,94.05
2022-09-28T16:13:28.198Z,94.14
2022-09-28T16:15:59.939Z,94.47
2022-09-28T16:18:30.074Z,94.94
2022-09-28T16:21:19.306Z,95.69
2022-09-28T16:23:52.255Z,96.95
2022-09-28T16:26:32.281Z,97.81
2022-09-28T16:29:07.152Z,98.37
2022-09-28T16:31:36.286Z,98.63
2022-09-28T16:34:20.227Z,99.34
2022-09-28T16:36:50.382Z,99.99
2022-09-28T16:39:19.925Z,100.00
2022-09-28T16:41:51.914Z,100.00
2022-09-28T16:44:26.643Z,100.00
2022-09-28T16:46:57.135Z,100.00
2022-09-28T16:49:26.933Z,100.00
2022-09-28T16:51:55.398Z,100.00
2022-09-28T16:54:42.703Z,100.00
2022-09-28T16:57:13.350Z,100.00
2022-09-28T16:59:42.885Z,100.00
2022-09-28T17:02:42.128Z,100.00
2022-09-28T17:05:08.102Z,100.00
2022-09-28T17:07:36.469Z,100.00
2022-09-28T17:10:04.819Z,100.00
2022-09-28T17:12:32.948Z,100.00
2022-09-28T17:15:02.582Z,100.00
2022-09-28T17:17:31.598Z,100.00
2022-09-28T17:19:59.758Z,100.00
2022-09-28T17:22:27.876Z,100.00
2022-09-28T17:24:56.015Z,100.00
2022-09-28T17:27:24.067Z,100.00
2022-09-28T17:29:52.152Z,100.00
2022-09-28T17:32:21.688Z,100.00
2022-09-28T17:35:00.944Z,100.00
2022-09-28T17:37:37.885Z,100.00
2022-09-28T17:40:17.049Z,100.00
2022-09-28T17:42:46.655Z,100.00
2022-09-28T17:45:15.589Z,100.00
2022-09-28T17:47:45.664Z,100.00
2022-09-28T17:50:22.727Z,100.00
2022-09-28T17:52:54.785Z,100.00
2022-09-28T17:55:24.319Z,100.00
2022-09-28T17:57:52.853Z,100.00
2022-09-28T18:00:21.205Z,100.00
2022-09-28T18:02:52.292Z,100.00
2022-09-28T18:05:20.442Z,100.00
2022-09-28T18:07:49.894Z,100.00
2022-09-28T18:10:21.413Z,100.00
2022-09-28T18:12:50.171Z,100.00
2022-09-28T18:15:19.936Z,100.00
2022-09-28T18:17:48.025Z,100.00
2022-09-28T18:20:17.538Z,100.00
2022-09-28T18:22:45.629Z,100.00
2022-09-28T18:25:13.751Z,100.00
2022-09-28T18:27:41.867Z,100.00
2022-09-28T18:30:10.782Z,100.00
2022-09-28T18:32:39.044Z,100.00
2022-09-28T18:35:10.252Z,100.00
2022-09-28T18:37:40.139Z,100.00
2022-09-28T18:40:10.392Z,100.00
2022-09-28T18:42:38.759Z,100.00
2022-09-28T18:45:08.555Z,100.00
2022-09-28T18:47:37.046Z,100.00
2022-09-28T18:50:05.871Z,100.00
2022-09-28T18:52:37.335Z,100.00
2022-09-28T18:55:08.237Z,100.00
2022-09-28T18:57:36.833Z,100.00
2022-09-28T19:00:07.255Z,100.00
2022-09-28T19:02:35.502Z,100.00
2022-09-28T19:05:03.741Z,100.00
2022-09-28T19:07:31.829Z,100.00
2022-09-28T19:09:59.936Z,100.00
2022-09-28T19:12:29.457Z,100.00
2022-09-28T19:14:59.670Z,100.00
2022-09-28T19:17:28.056Z,100.00
2022-09-28T19:19:56.274Z,100.00
2022-09-28T19:22:24.395Z,100.00
2022-09-28T19:24:52.522Z,100.00
2022-09-28T19:27:20.710Z,100.00
2022-09-28T19:29:50.635Z,100.00
2022-09-28T19:32:18.735Z,100.00
2022-09-28T19:34:46.869Z,100.00
2022-09-28T19:37:14.998Z,100.00
2022-09-28T19:39:43.116Z,100.00
2022-09-28T19:42:12.383Z,100.00
2022-09-28T19:44:40.464Z,100.00
2022-09-28T19:47:11.694Z,100.00
2022-09-28T19:49:41.211Z,100.00
2022-09-28T19:52:15.890Z,100.00
2022-09-28T19:54:45.936Z,100.00
2022-09-28T19:57:15.993Z,100.00
2022-09-28T19:59:44.340Z,100.00
2022-09-28T20:02:15.435Z,100.00
2022-09-28T20:04:43.618Z,100.00
2022-09-28T20:07:11.735Z,100.00
2022-09-28T20:09:39.928Z,100.00
2022-09-28T20:12:08.036Z,100.00
2022-09-28T20:14:38.173Z,100.00
2022-09-28T20:17:08.533Z,100.00
2022-09-28T20:19:38.230Z,100.00
2022-09-28T20:22:06.431Z,100.00
2022-09-28T20:24:34.571Z,100.00
2022-09-28T20:27:02.920Z,100.00
2022-09-28T20:29:33.495Z,100.00
2022-09-28T20:32:02.260Z,100.00
2022-09-28T20:34:30.407Z,100.00
2022-09-28T20:36:59.909Z,100.00
2022-09-28T20:39:28.041Z,100.00
2022-09-28T20:41:56.866Z,100.00
2022-09-28T20:44:25.084Z,100.00
2022-09-28T20:46:53.409Z,100.00
2022-09-28T20:49:21.765Z,100.00
2022-09-28T20:51:50.000Z,100.00
2022-09-28T20:54:19.607Z,100.00
2022-09-28T20:56:48.367Z,100.00
2022-09-28T20:59:16.646Z,100.00
2022-09-28T21:01:44.934Z,100.00
2022-09-28T21:04:13.410Z,100.00
2022-09-28T21:06:43.047Z,100.00
2022-09-28T21:09:13.403Z,100.00
2022-09-28T21:11:43.099Z,100.00
2022-09-28T21:14:11.348Z,100.00
2022-09-28T21:16:39.635Z,100.00
2022-09-28T21:19:08.115Z,100.00
2022-09-28T21:21:36.333Z,100.00
2022-09-28T21:24:04.804Z,100.00
2022-09-28T21:26:33.565Z,100.00
2022-09-28T21:29:05.416Z,100.00
2022-09-28T21:31:38.567Z,100.00
2022-09-28T21:34:06.906Z,100.00
2022-09-28T21:36:35.482Z,100.00
2022-09-28T21:39:08.268Z,100.00
2022-09-28T21:41:38.549Z,100.00
2022-09-28T21:44:08.609Z,100.00
2022-09-28T21:46:37.211Z,100.00
2022-09-28T21:49:07.562Z,100.00
2022-09-28T21:51:36.447Z,100.00
2022-09-28T21:54:04.820Z,100.00
2022-09-28T21:56:32.945Z,100.00
2022-09-28T21:59:01.442Z,100.00
2022-09-28T22:01:31.861Z,100.00
2022-09-28T22:04:00.233Z,100.00
2022-09-28T22:06:29.347Z,100.00
2022-09-28T22:08:57.754Z,100.00
2022-09-28T22:11:28.152Z,100.00
2022-09-28T22:13:58.058Z,100.00
2022-09-28T22:16:29.092Z,100.00
2022-09-28T22:18:59.149Z,100.00
2022-09-28T22:21:28.838Z,100.00
2022-09-28T22:24:01.031Z,100.00
2022-09-28T22:26:29.702Z,100.00
2022-09-28T22:28:59.200Z,100.00
2022-09-28T22:31:30.043Z,100.00
2022-09-28T22:33:59.998Z,100.00
2022-09-28T22:36:28.781Z,100.00
2022-09-28T22:38:58.504Z,100.00
2022-09-28T22:41:27.184Z,100.00
2022-09-28T22:43:57.355Z,100.00
2022-09-28T22:46:27.215Z,100.00
2022-09-28T22:48:57.088Z,100.00
2022-09-28T22:51:30.008Z,100.00
2022-09-28T22:53:58.504Z,100.00
2022-09-28T22:56:26.877Z,100.00
2022-09-28T22:58:55.151Z,100.00
2022-09-28T23:01:25.436Z,100.00
2022-09-28T23:03:54.720Z,100.00
2022-09-28T23:06:24.278Z,100.00
2022-09-28T23:08:54.340Z,100.00
2022-09-28T23:11:22.606Z,100.00
2022-09-28T23:13:51.595Z,100.00
2022-09-28T23:16:20.347Z,100.00
2022-09-28T23:18:49.295Z,100.00
2022-09-28T23:21:19.476Z,100.00
2022-09-28T23:23:55.355Z,100.00
2022-09-28T23:26:25.988Z,100.00
2022-09-28T23:28:54.795Z,100.00
2022-09-28T23:31:24.892Z,100.00
2022-09-28T23:33:57.473Z,100.00
2022-09-28T23:36:25.725Z,100.00
2022-09-28T23:38:55.569Z,100.00
2022-09-28T23:41:23.697Z,100.00
2022-09-28T23:43:52.041Z,100.00
2022-09-28T23:46:21.237Z,100.00
2022-09-28T23:48:50.034Z,100.00
2022-09-28T23:51:18.325Z,100.00
2022-09-28T23:53:47.113Z,100.00
2022-09-28T23:56:16.631Z,100.00
2022-09-28T23:58:45.141Z,100.00
